Richibucto, Canada
Current Conditions -  °F | °C
As of 12:00 PM on Thursday 23 Oct 2014 (Local Time) from CYQM Reporting Station
Overcast Overcast  
Wind Chill: 52°   Ceiling: 1500
Heat Index: 52°   Visibility: 15mi
Dew Point: 48°   Wind: 17mph
Humidity: 88%   Direction: 30°NNE
Pressure: 30.12"   Gusts: 24mph
Location:  46.68°N, 64.87°W
Report Text: CYQM 231500Z 03015G21KT 15SM BKN015 OVC060 11/09 A3012 RMK SF7SC1 SLP201
Loading
Personal Weather Stations






























Interactive Weather Map
Tropical Storm Tracking
New forecast layout! Learn more

10-Day Weather Forecast

Advertisements
Track Severe Weather on mobile